< < Back
Terminal Aerodrome Forecast


Current Version              Previous Versions:   1  2  3  4  5  6  7  8  9  

Terminal Aerodrome Forecast

937
FTUS44 KBMX 261934 AAA
TAFTCL
TAF AMD
KTCL 261934Z 2620/2718 17005KT P6SM VCTS SCT060CB
      TEMPO 2620/2623 TSRA SCT030CB
     FM271500 01005KT P6SM SCT100=

Latest METAR

102
SAUS70 KWBC 270700 RRE
MTRTCL
METAR KTCL 270653Z AUTO 35005KT 10SM CLR 22/19 A2998 RMK AO2 SLP149
T02220194


USA.gov is the U.S. government's official web portal to all federal, state and local government web resources and services.